• Join FlightAware (Why Join?)
  • Login
  • US Flag 
04:23AM EDT


 

Airport Tracker/Info


-or-


 

Live Flight TrackerFlight Track Log ✈ N8147X ✈ 20-Oct-2013 ✈ KGON - KDXR

Flight Track Log - Related Links

Times and Time Zones

All times are in EDT time to prevent confusion due to time zone crossing. See the N8147X flight status page for this flight to view local times or setup timezone preferences in your user account.

Time Position Orientation Groundspeed Altitude Reporting Facility
EDT Latitude Longitude Course Direction KTS MPH feet Rate Location/Type
06:38PM 41.3131 -72.1494 272° West 107 123 6,300  Level Boston Center
06:40PM 41.3172 -72.2081 275° West 104 120 6,400  Climbing Boston Center
06:41PM 41.3189 -72.2450 273° West 102 117 6,400 -60 Level Boston Center
06:42PM 41.3214 -72.2828 275° West 103 119 6,300 -60 Descending Boston Center
06:43PM 41.3228 -72.3250 273° West 107 123 6,300  Level Boston Center
06:44PM 41.3387 -72.3005 272° West  Level Estimated
06:44PM 41.3244 -72.3631 273° West 107 123 6,400  Level Boston Center
06:45PM 41.3261 -72.4006 273° West 105 121 6,400  Level Boston Center
06:46PM 41.3283 -72.4433 274° West 109 125 6,400  Level Boston Center
06:47PM 41.3303 -72.4806 274° West 104 120 6,400  Level Boston Center
06:48PM 41.3319 -72.5197 273° West 109 125 6,400  Level Boston Center
06:49PM 41.3339 -72.5603 274° West 103 119 6,400  Level Boston Center
06:50PM 41.3358 -72.5975 274° West 100 115 6,400 60 Level Boston Center
06:51PM 41.3358 -72.6356 270° West 103 119 6,600  Climbing Boston Center
06:52PM 41.3392 -72.6772 276° West 105 121 6,500  Descending Boston Center
06:53PM 41.3417 -72.7158 275° West 106 122 6,600  Climbing Boston Center
06:54PM 41.3431 -72.7547 273° West 106 122 6,500 -60 Descending Boston Center
06:55PM 41.3447 -72.7967 273° West 107 123 6,500 -60 Level Boston Center
06:56PM 41.3458 -72.8344 272° West 103 119 6,400 -120 Descending Boston Center
06:57PM 41.3478 -72.8744 274° West 108 124 6,300  Descending Boston Center
06:58PM 41.3492 -72.9164 273° West 106 122 6,400  Climbing Boston Center
06:59PM 41.3506 -72.9550 273° West 104 120 6,300 -60 Descending Boston Center
07:00PM 41.3525 -72.9939 274° West 106 122 6,300 -60 Level Boston Center
07:01PM 41.3547 -73.0325 274° West 106 122 6,200 -120 Descending Boston Center
07:02PM 41.3567 -73.0758 273° West 109 125 6,100 -240 Descending Boston Center
07:03PM 41.3575 -73.1178 272° West 113 130 5,800 -480 Descending Boston Center
07:04PM 41.3597 -73.1572 274° West 107 123 5,100 -720 Descending Boston Center
07:05PM 41.3614 -73.2006 273° West 108 124 4,400 -600 Descending Boston Center
07:06PM 41.3628 -73.2319 273° West 103 119 3,900 -600 Descending Boston Center
07:07PM 41.3669 -73.2711 278° West 105 121 3,300 -660 Descending Boston Center
07:08PM 41.3800 -73.3133 292° West 105 121 2,600 -660 Descending Boston Center
07:10PM 41.3917 -73.3439 297° West 101 116 2,000 -300 Descending Boston Center
07:11PM 41.3975 -73.3725 285° West 90 104 2,000  Level Boston Center
07:12PM 41.3914 -73.3969 252° West 77 89 2,000 -180 Level Boston Center
07:13PM 41.3883 -73.4233 261° West 74 85 1,700 -360 Descending Boston Center
07:14PM 41.3833 -73.4467 254° West 70 81 1,300 -300 Descending Boston Center
07:15PM 41.3769 -73.4703 250° West 67 77 1,100 -240 Descending Boston Center
07:17PM 41.3667 -73.4667 270° West  Level FlightAware Approximate